createdAt,value
2023-01-09T00:01:31.921Z,99652.91
2023-01-09T00:06:24.887Z,99656.53
2023-01-09T00:11:18.060Z,99622.41
2023-01-09T00:16:10.853Z,99628.69
2023-01-09T00:21:05.757Z,99663.22
2023-01-09T00:26:07.116Z,99674.03
2023-01-09T00:31:01.780Z,99662.91
2023-01-09T00:35:55.640Z,99642.75
2023-01-09T00:40:49.591Z,99626.84
2023-01-09T00:45:44.003Z,99669.34
2023-01-09T00:50:38.597Z,99678.38
2023-01-09T00:55:32.657Z,99672.22
2023-01-09T01:00:26.676Z,99639.44
2023-01-09T01:05:39.136Z,99653.03
2023-01-09T01:10:32.902Z,99641.28
2023-01-09T01:15:30.091Z,99654.63
2023-01-09T01:20:23.404Z,99668.84
2023-01-09T01:25:20.674Z,99673.31
2023-01-09T01:30:16.315Z,99626.44
2023-01-09T01:35:10.657Z,99669.44
2023-01-09T01:40:06.069Z,99637.28
2023-01-09T01:45:13.833Z,99651.34
2023-01-09T01:50:27.371Z,99666.53
2023-01-09T01:55:21.834Z,99627.59
2023-01-09T02:00:17.770Z,99633.41
2023-01-09T02:05:12.052Z,99653.88
2023-01-09T02:10:06.442Z,99621.84
2023-01-09T02:15:03.028Z,99628.56
2023-01-09T02:20:54.699Z,99637.59
2023-01-09T02:26:24.646Z,99634.22
2023-01-09T02:31:45.781Z,99620.38
2023-01-09T02:37:01.665Z,99629.41
2023-01-09T02:42:04.516Z,99595.09
2023-01-09T02:47:09.367Z,99616.63
2023-01-09T02:52:40.803Z,99625.28
2023-01-09T02:58:04.898Z,99644.16
2023-01-09T03:03:06.503Z,99632.84
2023-01-09T03:08:07.238Z,99625.78
2023-01-09T03:13:06.802Z,99613.72
2023-01-09T03:18:02.121Z,99569.53
2023-01-09T03:23:03.289Z,99567.97
2023-01-09T03:28:05.498Z,99598.19
2023-01-09T03:32:59.631Z,99613.31
2023-01-09T03:37:52.674Z,99596.56
2023-01-09T03:42:46.732Z,99597.31
2023-01-09T03:47:40.105Z,99604.16
2023-01-09T03:52:33.546Z,99581.38
2023-01-09T03:57:26.520Z,99588.50
2023-01-09T04:02:20.755Z,99556.63
2023-01-09T04:07:14.518Z,99544.88
2023-01-09T04:12:08.720Z,99581.16
2023-01-09T04:17:02.781Z,99571.03
2023-01-09T04:21:56.282Z,99582.13
2023-01-09T04:26:49.239Z,99591.03
2023-01-09T04:31:42.845Z,99578.44
2023-01-09T04:36:36.858Z,99568.09
2023-01-09T04:41:48.619Z,99603.63
2023-01-09T04:46:41.666Z,99570.00
2023-01-09T04:51:35.259Z,99579.91
2023-01-09T04:56:28.797Z,99560.38
2023-01-09T05:01:22.720Z,99583.53
2023-01-09T05:06:16.249Z,99546.53
2023-01-09T05:11:10.689Z,99589.25
2023-01-09T05:16:07.830Z,99598.13
2023-01-09T05:21:01.344Z,99614.22
2023-01-09T05:25:54.699Z,99602.63
2023-01-09T05:30:48.685Z,99630.94
2023-01-09T05:35:41.677Z,99605.41
2023-01-09T05:40:40.463Z,99592.03
2023-01-09T05:45:33.456Z,99610.13
2023-01-09T05:50:27.354Z,99583.41
2023-01-09T05:55:20.936Z,99588.22
2023-01-09T06:00:16.580Z,99547.78
2023-01-09T06:05:09.843Z,99562.69
2023-01-09T06:10:04.476Z,99575.22
2023-01-09T06:15:00.582Z,99583.28
2023-01-09T06:19:53.698Z,99603.38
2023-01-09T06:24:47.589Z,99612.16
2023-01-09T06:29:45.204Z,99618.81
2023-01-09T06:34:38.873Z,99602.94
2023-01-09T06:39:32.775Z,99625.09
2023-01-09T06:44:26.127Z,99597.72
2023-01-09T06:49:23.861Z,99614.75
2023-01-09T06:54:18.090Z,99595.50
2023-01-09T06:59:12.189Z,99583.00
2023-01-09T07:04:06.504Z,99596.00
2023-01-09T07:08:59.857Z,99555.09
2023-01-09T07:13:53.628Z,99571.41
2023-01-09T07:18:47.511Z,99533.38
2023-01-09T07:23:40.887Z,99494.31
2023-01-09T07:28:34.499Z,99478.81
2023-01-09T07:33:28.755Z,99568.31
2023-01-09T07:38:22.755Z,99495.19
2023-01-09T07:43:16.688Z,99549.69
2023-01-09T07:48:11.276Z,99558.59
2023-01-09T07:53:04.817Z,99584.03
2023-01-09T07:57:58.695Z,99590.66
2023-01-09T08:02:54.936Z,99531.47
2023-01-09T08:07:48.809Z,99531.41
2023-01-09T08:12:43.882Z,99556.16
2023-01-09T08:17:37.721Z,99552.69
2023-01-09T08:22:31.212Z,99538.44
2023-01-09T08:27:25.118Z,99590.53
2023-01-09T08:32:18.116Z,99565.56
2023-01-09T08:37:11.162Z,99581.25
2023-01-09T08:42:23.913Z,99580.91
2023-01-09T08:47:21.483Z,99577.44
2023-01-09T08:52:14.851Z,99591.88
2023-01-09T08:57:08.238Z,99576.75
2023-01-09T09:02:02.377Z,99589.97
2023-01-09T09:06:56.684Z,99602.47
2023-01-09T09:11:50.217Z,99569.03
2023-01-09T09:16:43.513Z,99560.84
2023-01-09T09:21:36.980Z,99567.34
2023-01-09T09:26:30.685Z,99542.78
2023-01-09T09:31:24.758Z,99572.31
2023-01-09T09:36:18.905Z,99604.97
2023-01-09T09:41:47.151Z,99611.91
2023-01-09T09:47:09.182Z,99615.91
2023-01-09T09:52:14.857Z,99632.66
2023-01-09T09:57:15.291Z,99612.84
2023-01-09T10:02:40.227Z,99623.94
2023-01-09T10:07:42.178Z,99571.69
2023-01-09T10:12:57.020Z,99493.56
2023-01-09T10:17:50.118Z,99587.75
2023-01-09T10:23:00.658Z,99574.53
2023-01-09T10:28:05.199Z,99567.44
2023-01-09T10:33:19.058Z,99565.38
2023-01-09T10:38:18.836Z,99556.16
2023-01-09T10:43:30.071Z,99564.81
2023-01-09T10:48:37.941Z,99553.16
2023-01-09T10:53:41.824Z,99555.06
2023-01-09T10:58:35.648Z,99535.56
2023-01-09T11:03:29.588Z,99559.53
2023-01-09T11:08:44.925Z,99565.81
2023-01-09T11:13:46.856Z,99579.16
2023-01-09T11:18:55.210Z,99571.09
2023-01-09T11:23:51.000Z,99559.19
2023-01-09T11:28:46.719Z,99542.47
2023-01-09T11:33:51.122Z,99564.13
2023-01-09T11:38:58.733Z,99581.00
2023-01-09T11:43:54.968Z,99562.22
2023-01-09T11:48:57.438Z,99534.63
2023-01-09T11:54:30.999Z,99546.56
2023-01-09T11:59:48.463Z,99542.94
2023-01-09T12:04:55.810Z,99527.31
2023-01-09T12:09:51.388Z,99503.63
2023-01-09T12:15:10.203Z,99499.41
2023-01-09T12:20:53.817Z,99488.69
2023-01-09T12:26:02.088Z,99447.88
2023-01-09T12:31:11.139Z,99448.59
2023-01-09T12:36:41.100Z,99477.75
2023-01-09T12:41:45.662Z,99472.09
2023-01-09T12:47:01.058Z,99474.66
2023-01-09T12:52:18.300Z,99452.63
2023-01-09T12:57:51.886Z,99456.25
2023-01-09T13:02:44.319Z,99467.31
2023-01-09T13:07:50.794Z,99439.16
2023-01-09T13:13:09.687Z,99450.59
2023-01-09T13:18:13.456Z,99432.19
2023-01-09T13:23:28.794Z,99420.63
2023-01-09T13:29:04.016Z,99424.72
2023-01-09T13:34:02.896Z,99415.81
2023-01-09T13:39:01.139Z,99371.44
2023-01-09T13:44:24.934Z,99400.88
2023-01-09T13:49:44.322Z,99391.03
2023-01-09T13:54:51.790Z,99406.06
2023-01-09T13:59:46.354Z,99385.72
2023-01-09T14:04:44.586Z,99386.44
2023-01-09T14:09:38.643Z,99365.16
2023-01-09T14:14:35.074Z,99374.19
2023-01-09T14:19:39.675Z,99381.88
2023-01-09T14:25:05.964Z,99359.75
2023-01-09T14:30:26.915Z,99360.13
2023-01-09T14:35:28.486Z,99374.91
2023-01-09T14:40:24.281Z,99405.13
2023-01-09T14:45:38.316Z,99405.13
2023-01-09T14:50:55.989Z,99417.50
2023-01-09T14:56:00.604Z,99398.13
2023-01-09T15:01:08.744Z,99414.97
2023-01-09T15:06:02.927Z,99403.78
2023-01-09T15:10:58.310Z,99405.59
2023-01-09T15:15:51.137Z,99424.25
2023-01-09T15:20:44.668Z,99433.00
2023-01-09T15:25:40.671Z,99435.66
2023-01-09T15:30:35.915Z,99448.66
2023-01-09T15:35:29.557Z,99424.84
2023-01-09T15:41:02.489Z,99450.34
2023-01-09T15:45:57.329Z,99454.91
2023-01-09T15:51:18.963Z,99469.00
2023-01-09T15:56:20.764Z,99451.09
2023-01-09T16:01:42.042Z,99480.06
2023-01-09T16:06:37.968Z,99466.69
2023-01-09T16:11:38.288Z,99472.25
2023-01-09T16:16:35.771Z,99456.84
2023-01-09T16:21:38.197Z,99470.06
2023-01-09T16:26:33.157Z,99486.78
2023-01-09T16:31:30.572Z,99485.59
2023-01-09T16:36:23.776Z,99487.28
2023-01-09T16:41:40.596Z,99457.81
2023-01-09T16:46:36.065Z,99492.22
2023-01-09T16:51:30.038Z,99512.22
2023-01-09T16:56:49.203Z,99513.91
2023-01-09T17:01:44.285Z,99485.47
2023-01-09T17:06:39.986Z,99500.53
2023-01-09T17:11:33.345Z,99499.44
2023-01-09T17:16:26.650Z,99501.34
2023-01-09T17:21:22.638Z,99489.81
2023-01-09T17:26:39.985Z,99499.44
2023-01-09T17:31:35.425Z,99485.09
2023-01-09T17:36:32.678Z,99493.78
2023-01-09T17:41:29.257Z,99492.94
2023-01-09T17:46:48.288Z,99519.44
2023-01-09T17:51:42.161Z,99517.97
2023-01-09T17:56:38.731Z,99523.50
2023-01-09T18:01:32.595Z,99517.38
2023-01-09T18:06:26.959Z,99522.56
2023-01-09T18:11:22.175Z,99556.88
2023-01-09T18:16:18.687Z,99526.88
2023-01-09T18:21:15.552Z,99528.72
2023-01-09T18:26:10.341Z,99563.00
2023-01-09T18:31:03.797Z,99560.84
2023-01-09T18:35:57.259Z,99587.13
2023-01-09T18:40:51.114Z,99586.75
2023-01-09T18:45:45.200Z,99586.66
2023-01-09T18:50:38.528Z,99586.28
2023-01-09T18:55:32.204Z,99592.53
2023-01-09T19:00:25.549Z,99608.41
2023-01-09T19:05:19.424Z,99640.97
2023-01-09T19:10:13.810Z,99635.75
2023-01-09T19:15:11.746Z,99664.88
2023-01-09T19:20:05.548Z,99679.00
2023-01-09T19:24:59.041Z,99656.31
2023-01-09T19:29:53.193Z,99688.97
2023-01-09T19:34:47.311Z,99662.94
2023-01-09T19:39:41.191Z,99656.19
2023-01-09T19:44:34.887Z,99678.78
2023-01-09T19:49:28.622Z,99691.09
2023-01-09T19:54:21.210Z,99717.84
2023-01-09T19:59:16.163Z,99719.66
2023-01-09T20:04:13.861Z,99690.47
2023-01-09T20:09:08.265Z,99729.63
2023-01-09T20:14:01.130Z,99721.44
2023-01-09T20:18:57.699Z,99735.84
2023-01-09T20:23:54.057Z,99768.63
2023-01-09T20:28:48.031Z,99762.31
2023-01-09T20:33:42.152Z,99781.59
2023-01-09T20:38:35.787Z,99775.84
2023-01-09T20:43:29.788Z,99778.97
2023-01-09T20:48:23.355Z,99807.97
2023-01-09T20:53:17.263Z,99801.28
2023-01-09T20:58:11.647Z,99812.94
2023-01-09T21:03:06.174Z,99822.03
2023-01-09T21:08:00.329Z,99796.59
2023-01-09T21:12:54.697Z,99828.84
2023-01-09T21:17:48.369Z,99805.81
2023-01-09T21:22:41.988Z,99796.56
2023-01-09T21:27:40.700Z,99825.06
2023-01-09T21:32:33.712Z,99798.72
2023-01-09T21:37:29.828Z,99845.38
2023-01-09T21:42:41.358Z,99860.19
2023-01-09T21:47:39.344Z,99839.25
2023-01-09T21:52:35.684Z,99844.63
2023-01-09T21:57:28.997Z,99847.81
2023-01-09T22:02:22.869Z,99872.44
2023-01-09T22:07:17.417Z,99855.53
2023-01-09T22:12:13.450Z,99897.84
2023-01-09T22:17:06.819Z,99881.78
2023-01-09T22:22:00.503Z,99882.72
2023-01-09T22:26:54.796Z,99906.00
2023-01-09T22:31:49.138Z,99913.00
2023-01-09T22:36:42.877Z,99888.03
2023-01-09T22:41:36.753Z,99914.69
2023-01-09T22:46:30.866Z,99908.50
2023-01-09T22:51:24.908Z,99910.91
2023-01-09T22:56:22.572Z,99925.31
2023-01-09T23:01:15.512Z,99936.72
2023-01-09T23:06:28.894Z,99946.38
2023-01-09T23:11:44.563Z,99915.09
2023-01-09T23:16:37.686Z,99954.31
2023-01-09T23:21:31.751Z,99946.28
2023-01-09T23:26:24.869Z,99921.41
2023-01-09T23:31:18.467Z,99942.69
2023-01-09T23:36:12.753Z,99923.19
2023-01-09T23:41:09.198Z,99930.19
2023-01-09T23:46:03.034Z,99946.50
2023-01-09T23:50:56.820Z,99942.34
2023-01-09T23:55:51.508Z,99946.69
